createdAt,value
2023-05-10T00:01:16.599Z,0.00
2023-05-10T00:03:17.023Z,0.00
2023-05-10T00:05:17.345Z,0.00
2023-05-10T00:07:17.635Z,0.00
2023-05-10T00:09:17.921Z,0.00
2023-05-10T00:11:18.223Z,0.00
2023-05-10T00:13:18.550Z,0.00
2023-05-10T00:15:18.816Z,0.00
2023-05-10T00:17:19.161Z,0.00
2023-05-10T00:19:19.559Z,0.00
2023-05-10T00:21:19.820Z,0.00
2023-05-10T00:23:20.169Z,0.00
2023-05-10T00:25:20.468Z,0.00
2023-05-10T00:27:20.753Z,0.00
2023-05-10T00:29:21.035Z,0.00
2023-05-10T00:31:21.318Z,0.00
2023-05-10T00:33:21.613Z,0.00
2023-05-10T00:35:21.929Z,0.00
2023-05-10T00:37:22.185Z,0.00
2023-05-10T00:39:22.528Z,0.00
2023-05-10T00:41:22.858Z,0.00
2023-05-10T00:43:23.106Z,0.00
2023-05-10T00:45:23.433Z,0.00
2023-05-10T00:47:23.751Z,0.00
2023-05-10T00:49:24.027Z,0.00
2023-05-10T00:51:24.329Z,0.00
2023-05-10T00:53:24.599Z,0.00
2023-05-10T00:55:24.941Z,0.00
2023-05-10T00:57:25.220Z,0.00
2023-05-10T00:59:25.494Z,0.00
2023-05-10T01:01:25.927Z,0.00
2023-05-10T01:03:26.266Z,0.00
2023-05-10T01:05:26.607Z,0.00
2023-05-10T01:07:27.058Z,0.00
2023-05-10T01:12:55.719Z,0.00
2023-05-10T01:14:55.985Z,0.00
2023-05-10T01:16:56.297Z,0.00
2023-05-10T01:18:56.605Z,0.00
2023-05-10T01:20:56.850Z,0.00
2023-05-10T01:22:57.171Z,0.00
2023-05-10T01:24:57.463Z,0.00
2023-05-10T01:26:57.750Z,0.00
2023-05-10T01:29:02.933Z,0.00
2023-05-10T01:31:03.255Z,0.00
2023-05-10T01:33:03.538Z,0.00
2023-05-10T01:35:03.842Z,0.00
2023-05-10T01:37:04.109Z,0.00
2023-05-10T01:39:04.415Z,0.00
2023-05-10T01:41:04.708Z,0.00
2023-05-10T01:43:09.849Z,0.00
2023-05-10T01:45:10.181Z,0.00
2023-05-10T01:47:10.460Z,0.00
2023-05-10T01:49:10.765Z,0.00
2023-05-10T01:51:11.141Z,0.00
2023-05-10T01:53:11.412Z,0.00
2023-05-10T01:55:11.700Z,0.00
2023-05-10T01:57:11.984Z,0.00
2023-05-10T01:59:12.307Z,0.00
2023-05-10T02:01:12.612Z,0.00
2023-05-10T02:03:12.965Z,0.00
2023-05-10T02:05:13.262Z,0.00
2023-05-10T02:07:13.549Z,0.00
2023-05-10T02:09:13.830Z,0.00
2023-05-10T02:11:14.130Z,0.00
2023-05-10T02:13:14.455Z,0.00
2023-05-10T02:15:14.707Z,0.00
2023-05-10T02:17:15.036Z,0.00
2023-05-10T02:19:15.349Z,0.00
2023-05-10T02:21:15.682Z,0.00
2023-05-10T02:23:15.962Z,0.00
2023-05-10T02:25:16.309Z,0.00
2023-05-10T02:27:16.621Z,0.00
2023-05-10T02:29:16.872Z,0.00
2023-05-10T02:31:17.184Z,0.00
2023-05-10T02:33:17.472Z,0.00
2023-05-10T02:35:17.738Z,0.00
2023-05-10T02:37:18.077Z,0.00
2023-05-10T02:39:18.386Z,0.00
2023-05-10T02:41:23.574Z,0.00
2023-05-10T02:43:24.710Z,0.00
2023-05-10T02:45:25.066Z,0.00
2023-05-10T02:47:25.284Z,0.00
2023-05-10T02:49:25.579Z,0.00
2023-05-10T02:51:25.941Z,0.00
2023-05-10T02:53:26.224Z,0.00
2023-05-10T02:55:26.511Z,0.00
2023-05-10T02:57:26.771Z,0.00
2023-05-10T02:59:27.083Z,0.00
2023-05-10T03:01:27.449Z,0.00
2023-05-10T03:03:27.745Z,0.00
2023-05-10T03:05:28.029Z,0.00
2023-05-10T03:07:28.322Z,0.00
2023-05-10T03:09:28.631Z,0.00
2023-05-10T03:11:28.932Z,0.00
2023-05-10T03:13:29.411Z,0.00
2023-05-10T03:15:29.776Z,0.00
2023-05-10T03:17:30.094Z,0.00
2023-05-10T03:19:30.338Z,0.00
2023-05-10T03:21:30.677Z,0.00
2023-05-10T03:23:30.953Z,0.00
2023-05-10T03:25:31.231Z,0.00
2023-05-10T03:27:31.512Z,0.00
2023-05-10T03:29:31.826Z,4.00
2023-05-10T03:31:32.109Z,8.00
2023-05-10T03:33:32.467Z,4.00
2023-05-10T03:35:32.680Z,8.00
2023-05-10T03:37:33.072Z,12.00
2023-05-10T03:39:33.337Z,16.00
2023-05-10T03:41:33.676Z,20.00
2023-05-10T03:43:33.925Z,32.00
2023-05-10T03:45:39.118Z,32.00
2023-05-10T03:47:39.692Z,44.00
2023-05-10T03:49:39.999Z,56.00
2023-05-10T03:51:40.277Z,72.00
2023-05-10T03:53:40.635Z,80.00
2023-05-10T03:55:40.897Z,92.00
2023-05-10T03:57:41.231Z,104.00
2023-05-10T03:59:41.486Z,116.00
2023-05-10T04:01:41.842Z,144.00
2023-05-10T04:03:42.328Z,160.00
2023-05-10T04:05:42.677Z,188.00
2023-05-10T04:07:42.939Z,208.00
2023-05-10T04:09:43.276Z,256.00
2023-05-10T04:11:43.595Z,284.00
2023-05-10T04:13:43.896Z,296.00
2023-05-10T04:15:44.143Z,284.00
2023-05-10T04:17:44.517Z,284.00
2023-05-10T04:19:44.847Z,292.00
2023-05-10T04:21:45.094Z,300.00
2023-05-10T04:23:45.383Z,292.00
2023-05-10T04:25:45.681Z,316.00
2023-05-10T04:27:45.955Z,352.00
2023-05-10T04:29:46.273Z,356.00
2023-05-10T04:31:46.528Z,352.00
2023-05-10T04:33:46.871Z,372.00
2023-05-10T04:35:47.175Z,396.00
2023-05-10T04:37:47.425Z,380.00
2023-05-10T04:39:47.784Z,400.00
2023-05-10T04:41:48.021Z,420.00
2023-05-10T04:43:48.337Z,448.00
2023-05-10T04:45:48.616Z,424.00
2023-05-10T04:47:48.962Z,404.00
2023-05-10T04:49:49.282Z,464.00
2023-05-10T04:51:49.572Z,476.00
2023-05-10T04:54:01.531Z,528.00
2023-05-10T04:55:55.039Z,532.00
2023-05-10T04:57:55.307Z,536.00
2023-05-10T04:59:55.595Z,552.00
2023-05-10T05:01:55.937Z,612.00
2023-05-10T05:03:56.382Z,720.00
2023-05-10T05:05:56.714Z,676.00
2023-05-10T05:07:57.087Z,680.00
2023-05-10T05:09:57.548Z,760.00
2023-05-10T05:11:57.859Z,692.00
2023-05-10T05:13:58.146Z,692.00
2023-05-10T05:15:58.417Z,848.00
2023-05-10T05:17:58.840Z,996.00
2023-05-10T05:19:59.130Z,1116.00
2023-05-10T05:21:59.418Z,1460.00
2023-05-10T05:23:59.752Z,1632.00
2023-05-10T05:26:00.057Z,1704.00
2023-05-10T05:28:00.376Z,1744.00
2023-05-10T05:30:00.634Z,1416.00
2023-05-10T05:32:01.160Z,1208.00
2023-05-10T05:34:01.450Z,1208.00
2023-05-10T05:36:01.725Z,1240.00
2023-05-10T05:38:02.045Z,1312.00
2023-05-10T05:40:02.353Z,1504.00
2023-05-10T05:42:02.654Z,1424.00
2023-05-10T05:44:02.955Z,1380.00
2023-05-10T05:46:03.336Z,1532.00
2023-05-10T05:48:03.649Z,1564.00
2023-05-10T05:50:04.023Z,1796.00
2023-05-10T05:52:04.310Z,1460.00
2023-05-10T05:54:04.622Z,1292.00
2023-05-10T05:56:04.992Z,1492.00
2023-05-10T05:58:05.342Z,1320.00
2023-05-10T06:00:05.639Z,1000.00
2023-05-10T06:02:05.984Z,772.00
2023-05-10T06:04:06.343Z,596.00
2023-05-10T06:06:06.673Z,488.00
2023-05-10T06:08:06.966Z,644.00
2023-05-10T06:10:07.234Z,1196.00
2023-05-10T06:12:07.557Z,2028.00
2023-05-10T06:14:08.826Z,1948.00
2023-05-10T06:16:09.258Z,2160.00
2023-05-10T06:18:09.596Z,2220.00
2023-05-10T06:20:09.980Z,2048.00
2023-05-10T06:22:10.326Z,1812.00
2023-05-10T06:24:10.621Z,2004.00
2023-05-10T06:26:10.905Z,2292.00
2023-05-10T06:28:11.311Z,2720.00
2023-05-10T06:30:13.365Z,2668.00
2023-05-10T06:32:13.968Z,2768.00
2023-05-10T06:34:14.251Z,2608.00
2023-05-10T06:36:14.546Z,2192.00
2023-05-10T06:38:14.901Z,2132.00
2023-05-10T06:40:15.175Z,2100.00
2023-05-10T06:42:15.458Z,2300.00
2023-05-10T06:44:15.756Z,2428.00
2023-05-10T06:46:16.162Z,2540.00
2023-05-10T06:48:16.443Z,2756.00
2023-05-10T06:50:16.752Z,2848.00
2023-05-10T06:52:17.075Z,2824.00
2023-05-10T06:54:17.381Z,2648.00
2023-05-10T06:56:17.696Z,2696.00
2023-05-10T06:58:17.960Z,2560.00
2023-05-10T07:00:18.652Z,2288.00
2023-05-10T07:02:19.273Z,2344.00
2023-05-10T07:04:19.655Z,2232.00
2023-05-10T07:06:32.350Z,2556.00
2023-05-10T07:08:25.232Z,2760.00
2023-05-10T07:10:25.484Z,3276.00
2023-05-10T07:12:25.798Z,3644.00
2023-05-10T07:14:26.098Z,3896.00
2023-05-10T07:16:26.431Z,3868.00
2023-05-10T07:18:26.778Z,4176.00
2023-05-10T07:20:27.063Z,4320.00
2023-05-10T07:22:27.382Z,4448.00
2023-05-10T07:24:27.658Z,4248.00
2023-05-10T07:26:27.931Z,4336.00
2023-05-10T07:28:28.237Z,4560.00
2023-05-10T07:30:28.569Z,4552.00
2023-05-10T07:32:28.933Z,4844.00
2023-05-10T07:34:29.377Z,4944.00
2023-05-10T07:36:29.666Z,4648.00
2023-05-10T07:38:29.974Z,4808.00
2023-05-10T07:40:30.230Z,4816.00
2023-05-10T07:42:30.652Z,4796.00
2023-05-10T07:44:30.930Z,5088.00
2023-05-10T07:46:31.257Z,5260.00
2023-05-10T07:48:31.555Z,5524.00
2023-05-10T07:50:31.860Z,5552.00
2023-05-10T07:52:32.162Z,5580.00
2023-05-10T07:54:37.337Z,5508.00
2023-05-10T07:56:37.628Z,5344.00
2023-05-10T07:58:37.972Z,4708.00
2023-05-10T08:00:38.308Z,4824.00
2023-05-10T08:02:38.669Z,4552.00
2023-05-10T08:04:39.226Z,4756.00
2023-05-10T08:06:39.691Z,5800.00
2023-05-10T08:08:39.960Z,5112.00
2023-05-10T08:10:40.281Z,3996.00
2023-05-10T08:12:40.554Z,4296.00
2023-05-10T08:14:40.841Z,4604.00
2023-05-10T08:16:41.154Z,4444.00
2023-05-10T08:18:41.461Z,4644.00
2023-05-10T08:20:41.789Z,4476.00
2023-05-10T08:22:42.042Z,3824.00
2023-05-10T08:24:42.387Z,3212.00
2023-05-10T08:26:42.653Z,4008.00
2023-05-10T08:28:42.932Z,4472.00
2023-05-10T08:30:43.230Z,5176.00
2023-05-10T08:32:43.572Z,5676.00
2023-05-10T08:34:43.936Z,6240.00
2023-05-10T08:36:44.260Z,6432.00
2023-05-10T08:38:44.649Z,6328.00
2023-05-10T08:40:44.953Z,4448.00
2023-05-10T08:42:45.299Z,3320.00
2023-05-10T08:44:47.106Z,3952.00
2023-05-10T08:46:48.739Z,4820.00
2023-05-10T08:48:49.148Z,3492.00
2023-05-10T08:50:49.484Z,2896.00
2023-05-10T08:52:49.869Z,2328.00
2023-05-10T08:54:50.120Z,1816.00
2023-05-10T08:56:50.403Z,1316.00
2023-05-10T08:58:50.766Z,1128.00
2023-05-10T09:00:51.015Z,1156.00
2023-05-10T09:02:51.353Z,1724.00
2023-05-10T09:04:51.724Z,1836.00
2023-05-10T09:06:56.874Z,2456.00
2023-05-10T09:08:57.213Z,2144.00
2023-05-10T09:10:57.473Z,2184.00
2023-05-10T09:12:59.218Z,1336.00
2023-05-10T09:14:59.873Z,2032.00
2023-05-10T09:17:00.247Z,1332.00
2023-05-10T09:19:00.598Z,1208.00
2023-05-10T09:21:00.911Z,1060.00
2023-05-10T09:23:01.226Z,880.00
2023-05-10T09:25:01.556Z,884.00
2023-05-10T09:27:01.855Z,836.00
2023-05-10T09:29:02.148Z,1168.00
2023-05-10T09:31:02.515Z,1584.00
2023-05-10T09:33:02.858Z,2980.00
2023-05-10T09:35:03.202Z,3636.00
2023-05-10T09:37:03.512Z,4488.00
2023-05-10T09:39:03.772Z,5400.00
2023-05-10T09:41:04.083Z,5608.00
2023-05-10T09:43:04.475Z,6156.00
2023-05-10T09:45:04.761Z,6084.00
2023-05-10T09:47:09.905Z,5992.00
2023-05-10T09:49:10.245Z,5836.00
2023-05-10T09:51:10.533Z,4664.00
2023-05-10T09:53:10.835Z,3996.00
2023-05-10T09:55:11.118Z,4372.00
2023-05-10T09:57:11.450Z,3488.00
2023-05-10T09:59:11.776Z,2300.00
2023-05-10T10:01:12.116Z,2188.00
2023-05-10T10:03:12.376Z,2096.00
2023-05-10T10:05:12.708Z,2268.00
2023-05-10T10:07:13.029Z,2324.00
2023-05-10T10:09:13.307Z,2284.00
2023-05-10T10:11:13.634Z,2436.00
2023-05-10T10:13:13.923Z,2612.00
2023-05-10T10:15:16.527Z,2712.00
2023-05-10T10:17:17.079Z,3376.00
2023-05-10T10:19:17.352Z,4012.00
2023-05-10T10:21:17.700Z,4368.00
2023-05-10T10:23:18.048Z,5716.00
2023-05-10T10:25:18.743Z,4716.00
2023-05-10T10:27:19.178Z,2780.00
2023-05-10T10:29:19.450Z,2088.00
2023-05-10T10:31:19.921Z,2468.00
2023-05-10T10:33:27.884Z,2660.00
2023-05-10T10:35:25.421Z,3448.00
2023-05-10T10:37:25.682Z,3844.00
2023-05-10T10:39:26.059Z,4160.00
2023-05-10T10:41:26.338Z,4608.00
2023-05-10T10:43:26.668Z,4620.00
2023-05-10T10:45:26.953Z,5480.00
2023-05-10T10:47:27.330Z,6008.00
2023-05-10T10:49:27.607Z,6572.00
2023-05-10T10:51:27.907Z,6992.00
2023-05-10T10:53:28.193Z,7136.00
2023-05-10T10:55:28.516Z,7284.00
2023-05-10T10:57:28.819Z,7240.00
2023-05-10T10:59:29.133Z,7368.00
2023-05-10T11:01:29.548Z,7316.00
2023-05-10T11:03:29.917Z,7256.00
2023-05-10T11:05:30.196Z,7176.00
2023-05-10T11:07:30.573Z,7512.00
2023-05-10T11:09:30.827Z,8156.00
2023-05-10T11:11:31.158Z,8056.00
2023-05-10T11:13:31.457Z,7968.00
2023-05-10T11:15:31.781Z,8152.00
2023-05-10T11:17:32.118Z,8232.00
2023-05-10T11:19:32.400Z,8248.00
2023-05-10T11:21:32.741Z,8304.00
2023-05-10T11:23:32.999Z,6892.00
2023-05-10T11:25:33.322Z,5372.00
2023-05-10T11:27:33.577Z,5928.00
2023-05-10T11:29:34.348Z,6412.00
2023-05-10T11:31:34.656Z,7236.00
2023-05-10T11:33:34.968Z,6192.00
2023-05-10T11:35:35.280Z,6440.00
2023-05-10T11:37:35.561Z,6976.00
2023-05-10T11:39:35.824Z,6412.00
2023-05-10T11:41:36.430Z,6892.00
2023-05-10T11:43:37.250Z,7256.00
2023-05-10T11:45:38.241Z,7376.00
2023-05-10T11:47:39.034Z,7300.00
2023-05-10T11:49:40.744Z,7904.00
2023-05-10T11:51:40.997Z,8100.00
2023-05-10T11:53:41.303Z,7436.00
2023-05-10T11:55:42.102Z,8012.00
2023-05-10T11:57:42.436Z,8368.00
2023-05-10T11:59:43.343Z,8476.00
2023-05-10T12:01:43.722Z,8784.00
2023-05-10T12:03:44.256Z,9216.00
2023-05-10T12:05:44.650Z,8776.00
2023-05-10T12:07:44.911Z,8424.00
2023-05-10T12:09:45.263Z,8856.00
2023-05-10T12:11:45.521Z,8140.00
2023-05-10T12:13:45.842Z,8740.00
2023-05-10T12:15:46.145Z,9008.00
2023-05-10T12:17:46.461Z,9100.00
2023-05-10T12:19:46.748Z,8716.00
2023-05-10T12:21:47.102Z,8292.00
2023-05-10T12:23:47.385Z,7292.00
2023-05-10T12:25:47.745Z,7672.00
2023-05-10T12:27:48.122Z,7512.00
2023-05-10T12:29:48.448Z,7512.00
2023-05-10T12:31:48.736Z,6764.00
2023-05-10T12:33:49.040Z,6092.00
2023-05-10T12:35:49.355Z,6596.00
2023-05-10T12:37:49.663Z,6560.00
2023-05-10T12:39:49.939Z,6436.00
2023-05-10T12:41:50.290Z,7060.00
2023-05-10T12:43:50.604Z,5212.00
2023-05-10T12:45:50.944Z,4160.00
2023-05-10T12:47:51.251Z,4988.00
2023-05-10T12:49:51.521Z,6436.00
2023-05-10T12:51:51.848Z,8176.00
2023-05-10T12:53:52.173Z,8160.00
2023-05-10T12:55:52.458Z,7208.00
2023-05-10T12:57:52.787Z,7732.00
2023-05-10T12:59:53.061Z,7668.00
2023-05-10T13:01:53.362Z,6452.00
2023-05-10T13:03:53.650Z,6708.00
2023-05-10T13:05:53.998Z,6960.00
2023-05-10T13:07:54.317Z,7492.00
2023-05-10T13:09:54.575Z,7400.00
2023-05-10T13:11:55.020Z,7252.00
2023-05-10T13:13:55.318Z,7028.00
2023-05-10T13:15:55.840Z,6928.00
2023-05-10T13:17:56.236Z,6632.00
2023-05-10T13:19:56.496Z,6976.00
2023-05-10T13:21:56.801Z,6932.00
2023-05-10T13:23:57.214Z,7208.00
2023-05-10T13:25:57.563Z,7432.00
2023-05-10T13:27:58.095Z,7488.00
2023-05-10T13:29:58.374Z,7756.00
2023-05-10T13:31:58.708Z,6920.00
2023-05-10T13:33:59.010Z,6780.00
2023-05-10T13:35:59.330Z,6820.00
2023-05-10T13:37:59.613Z,7480.00
2023-05-10T13:40:00.060Z,7948.00
2023-05-10T13:42:00.492Z,7836.00
2023-05-10T13:44:00.742Z,7324.00
2023-05-10T13:46:01.053Z,7608.00
2023-05-10T13:48:01.500Z,6980.00
2023-05-10T13:50:06.586Z,7056.00
2023-05-10T13:52:06.989Z,7452.00
2023-05-10T13:54:07.251Z,7712.00
2023-05-10T13:56:07.569Z,8144.00
2023-05-10T13:58:07.902Z,8144.00
2023-05-10T14:00:08.169Z,8240.00
2023-05-10T14:02:08.662Z,8472.00
2023-05-10T14:04:09.211Z,8096.00
2023-05-10T14:06:09.570Z,7972.00
2023-05-10T14:08:09.855Z,7904.00
2023-05-10T14:10:10.116Z,8424.00
2023-05-10T14:12:10.431Z,8172.00
2023-05-10T14:14:10.707Z,7636.00
2023-05-10T14:16:11.079Z,7156.00
2023-05-10T14:18:11.435Z,7976.00
2023-05-10T14:20:11.803Z,8324.00
2023-05-10T14:22:12.092Z,8104.00
2023-05-10T14:24:12.388Z,7784.00
2023-05-10T14:26:12.669Z,7884.00
2023-05-10T14:28:13.076Z,7784.00
2023-05-10T14:30:13.471Z,7404.00
2023-05-10T14:32:13.835Z,7228.00
2023-05-10T14:34:14.127Z,7448.00
2023-05-10T14:36:14.515Z,6916.00
2023-05-10T14:38:14.870Z,7008.00
2023-05-10T14:40:15.166Z,6936.00
2023-05-10T14:42:17.506Z,6924.00
2023-05-10T14:44:18.003Z,6884.00
2023-05-10T14:46:18.375Z,7216.00
2023-05-10T14:48:18.751Z,6920.00
2023-05-10T14:50:32.397Z,6904.00
2023-05-10T14:52:24.254Z,7044.00
2023-05-10T14:54:24.586Z,6972.00
2023-05-10T14:56:24.883Z,6508.00
2023-05-10T14:58:25.173Z,6520.00
2023-05-10T15:00:25.508Z,6472.00
2023-05-10T15:02:26.425Z,6388.00
2023-05-10T15:04:28.409Z,6144.00
2023-05-10T15:06:29.473Z,5924.00
2023-05-10T15:08:29.810Z,6100.00
2023-05-10T15:10:30.884Z,6192.00
2023-05-10T15:12:31.884Z,6328.00
2023-05-10T15:14:32.204Z,6420.00
2023-05-10T15:16:34.302Z,6632.00
2023-05-10T15:18:36.303Z,6456.00
2023-05-10T15:20:36.566Z,6528.00
2023-05-10T15:22:36.907Z,6148.00
2023-05-10T15:24:37.210Z,6372.00
2023-05-10T15:26:37.536Z,6152.00
2023-05-10T15:28:37.796Z,5960.00
2023-05-10T15:30:38.094Z,6236.00
2023-05-10T15:32:38.427Z,5324.00
2023-05-10T15:34:38.729Z,5264.00
2023-05-10T15:36:39.003Z,5768.00
2023-05-10T15:38:39.367Z,5784.00
2023-05-10T15:40:39.643Z,6252.00
2023-05-10T15:42:39.972Z,6520.00
2023-05-10T15:44:40.244Z,6732.00
2023-05-10T15:46:40.599Z,6712.00
2023-05-10T15:48:40.972Z,6852.00
2023-05-10T15:50:41.326Z,6972.00
2023-05-10T15:52:41.583Z,6336.00
2023-05-10T15:54:41.889Z,6380.00
2023-05-10T15:56:42.282Z,6528.00
2023-05-10T15:58:42.554Z,6264.00
2023-05-10T16:00:42.890Z,5012.00
2023-05-10T16:02:43.313Z,4316.00
2023-05-10T16:04:43.671Z,4136.00
2023-05-10T16:06:43.994Z,4376.00
2023-05-10T16:08:44.310Z,4860.00
2023-05-10T16:10:44.652Z,4140.00
2023-05-10T16:12:45.002Z,4220.00
2023-05-10T16:14:45.291Z,4820.00
2023-05-10T16:16:45.641Z,4856.00
2023-05-10T16:18:46.103Z,4756.00
2023-05-10T16:20:46.518Z,4144.00
2023-05-10T16:22:46.840Z,3712.00
2023-05-10T16:24:47.160Z,3540.00
2023-05-10T16:26:47.634Z,3572.00
2023-05-10T16:28:47.915Z,3520.00
2023-05-10T16:30:49.274Z,3788.00
2023-05-10T16:32:49.771Z,3864.00
2023-05-10T16:34:50.001Z,3744.00
2023-05-10T16:36:50.298Z,3928.00
2023-05-10T16:38:50.606Z,3656.00
2023-05-10T16:40:50.896Z,3604.00
2023-05-10T16:42:51.320Z,3788.00
2023-05-10T16:44:51.538Z,4000.00
2023-05-10T16:46:52.032Z,4076.00
2023-05-10T16:48:52.354Z,3976.00
2023-05-10T16:50:52.646Z,3644.00
2023-05-10T16:52:52.927Z,3452.00
2023-05-10T16:54:53.265Z,3556.00
2023-05-10T16:56:53.554Z,3224.00
2023-05-10T16:58:53.846Z,2972.00
2023-05-10T17:00:54.201Z,2700.00
2023-05-10T17:02:54.647Z,2432.00
2023-05-10T17:04:55.083Z,2440.00
2023-05-10T17:06:55.361Z,2260.00
2023-05-10T17:08:55.834Z,2156.00
2023-05-10T17:10:56.160Z,2112.00
2023-05-10T17:12:56.462Z,2152.00
2023-05-10T17:14:56.727Z,2164.00
2023-05-10T17:16:57.183Z,2080.00
2023-05-10T17:18:57.684Z,2124.00
2023-05-10T17:20:58.021Z,2100.00
2023-05-10T17:22:58.307Z,2052.00
2023-05-10T17:24:58.604Z,1992.00
2023-05-10T17:26:58.925Z,1888.00
2023-05-10T17:28:59.206Z,1800.00
2023-05-10T17:30:59.524Z,1656.00
2023-05-10T17:32:59.864Z,1468.00
2023-05-10T17:35:00.198Z,1236.00
2023-05-10T17:37:00.430Z,1320.00
2023-05-10T17:39:00.749Z,1412.00
2023-05-10T17:41:01.063Z,1416.00
2023-05-10T17:43:01.440Z,1372.00
2023-05-10T17:45:01.737Z,1468.00
2023-05-10T17:47:02.053Z,1392.00
2023-05-10T17:49:02.362Z,1424.00
2023-05-10T17:51:02.691Z,1400.00
2023-05-10T17:53:03.030Z,1204.00
2023-05-10T17:55:03.655Z,1172.00
2023-05-10T17:57:04.680Z,1004.00
2023-05-10T17:59:05.039Z,944.00
2023-05-10T18:01:05.506Z,860.00
2023-05-10T18:03:06.069Z,852.00
2023-05-10T18:05:06.702Z,764.00
2023-05-10T18:07:07.325Z,824.00
2023-05-10T18:09:07.871Z,720.00
2023-05-10T18:11:08.553Z,756.00
2023-05-10T18:13:09.270Z,720.00
2023-05-10T18:15:09.682Z,656.00
2023-05-10T18:17:10.453Z,620.00
2023-05-10T18:19:11.007Z,604.00
2023-05-10T18:21:11.320Z,552.00
2023-05-10T18:23:11.945Z,580.00
2023-05-10T18:25:12.200Z,500.00
2023-05-10T18:27:12.553Z,464.00
2023-05-10T18:29:13.253Z,440.00
2023-05-10T18:31:13.683Z,444.00
2023-05-10T18:33:14.003Z,392.00
2023-05-10T18:35:14.630Z,308.00
2023-05-10T18:37:15.379Z,256.00
2023-05-10T18:39:15.643Z,228.00
2023-05-10T18:41:16.086Z,204.00
2023-05-10T18:43:18.099Z,160.00
2023-05-10T18:45:18.803Z,132.00
2023-05-10T18:47:19.270Z,92.00
2023-05-10T18:49:19.521Z,80.00
2023-05-10T18:51:19.809Z,56.00
2023-05-10T18:53:20.131Z,52.00
2023-05-10T18:55:20.408Z,36.00
2023-05-10T18:57:20.848Z,32.00
2023-05-10T18:59:21.151Z,24.00
2023-05-10T19:01:21.541Z,20.00
2023-05-10T19:03:22.787Z,20.00
2023-05-10T19:05:23.161Z,16.00
2023-05-10T19:07:23.446Z,12.00
2023-05-10T19:09:23.731Z,12.00
2023-05-10T19:11:25.096Z,12.00
2023-05-10T19:13:25.433Z,12.00
2023-05-10T19:15:25.948Z,8.00
2023-05-10T19:17:26.389Z,4.00
2023-05-10T19:19:27.636Z,4.00
2023-05-10T19:21:28.017Z,4.00
2023-05-10T19:23:29.468Z,0.00
2023-05-10T19:25:29.942Z,4.00
2023-05-10T19:27:31.790Z,0.00
2023-05-10T19:29:32.372Z,0.00
2023-05-10T19:31:32.672Z,0.00
2023-05-10T19:33:32.998Z,0.00
2023-05-10T19:35:33.327Z,0.00
2023-05-10T19:37:33.622Z,0.00
2023-05-10T19:39:34.093Z,0.00
2023-05-10T19:41:34.780Z,0.00
2023-05-10T19:43:35.019Z,0.00
2023-05-10T19:45:36.547Z,0.00
2023-05-10T19:47:41.624Z,0.00
2023-05-10T19:49:41.997Z,0.00
2023-05-10T19:51:42.290Z,0.00
2023-05-10T19:53:42.545Z,0.00
2023-05-10T19:55:42.960Z,0.00
2023-05-10T19:57:43.269Z,0.00
2023-05-10T19:59:43.678Z,0.00
2023-05-10T20:01:43.918Z,0.00
2023-05-10T20:03:44.287Z,0.00
2023-05-10T20:05:44.579Z,0.00
2023-05-10T20:07:44.912Z,0.00
2023-05-10T20:09:45.364Z,0.00
2023-05-10T20:11:45.845Z,0.00
2023-05-10T20:13:50.849Z,0.00
2023-05-10T20:15:51.168Z,0.00
2023-05-10T20:17:51.577Z,0.00
2023-05-10T20:19:51.858Z,0.00
2023-05-10T20:21:52.189Z,0.00
2023-05-10T20:23:52.692Z,0.00
2023-05-10T20:25:53.060Z,0.00
2023-05-10T20:27:53.440Z,0.00
2023-05-10T20:29:53.701Z,0.00
2023-05-10T20:31:54.147Z,0.00
2023-05-10T20:33:54.663Z,0.00
2023-05-10T20:35:54.888Z,0.00
2023-05-10T20:37:55.261Z,0.00
2023-05-10T20:39:55.666Z,0.00
2023-05-10T20:41:56.112Z,0.00
2023-05-10T20:43:56.424Z,0.00
2023-05-10T20:45:56.728Z,0.00
2023-05-10T20:47:57.212Z,0.00
2023-05-10T20:49:57.535Z,0.00
2023-05-10T20:51:57.852Z,0.00
2023-05-10T20:53:58.230Z,0.00
2023-05-10T20:55:58.522Z,0.00
2023-05-10T20:57:58.920Z,0.00
2023-05-10T20:59:59.242Z,0.00
2023-05-10T21:01:59.599Z,0.00
2023-05-10T21:03:59.933Z,0.00
2023-05-10T21:06:00.229Z,0.00
2023-05-10T21:08:00.520Z,0.00
2023-05-10T21:10:00.857Z,0.00
2023-05-10T21:12:01.146Z,0.00
2023-05-10T21:14:01.449Z,0.00
2023-05-10T21:16:01.816Z,0.00
2023-05-10T21:18:02.201Z,0.00
2023-05-10T21:20:02.623Z,0.00
2023-05-10T21:22:02.972Z,0.00
2023-05-10T21:24:03.250Z,0.00
2023-05-10T21:26:03.672Z,0.00
2023-05-10T21:28:04.208Z,0.00
2023-05-10T21:30:04.478Z,0.00
2023-05-10T21:32:04.926Z,0.00
2023-05-10T21:34:05.284Z,0.00
2023-05-10T21:36:05.632Z,0.00
2023-05-10T21:38:06.088Z,0.00
2023-05-10T21:40:06.359Z,0.00
2023-05-10T21:42:06.669Z,0.00
2023-05-10T21:44:06.965Z,0.00
2023-05-10T21:46:07.351Z,0.00
2023-05-10T21:48:07.741Z,0.00
2023-05-10T21:50:08.121Z,0.00
2023-05-10T21:52:08.436Z,0.00
2023-05-10T21:54:08.748Z,0.00
2023-05-10T21:56:09.174Z,0.00
2023-05-10T21:58:09.460Z,0.00
2023-05-10T22:00:09.786Z,0.00
2023-05-10T22:02:10.496Z,0.00
2023-05-10T22:04:10.807Z,0.00
2023-05-10T22:06:11.096Z,0.00
2023-05-10T22:08:11.412Z,0.00
2023-05-10T22:10:11.781Z,0.00
2023-05-10T22:12:12.062Z,0.00
2023-05-10T22:14:12.357Z,0.00
2023-05-10T22:16:12.729Z,0.00
2023-05-10T22:18:13.186Z,0.00
2023-05-10T22:20:13.580Z,0.00
2023-05-10T22:22:13.932Z,0.00
2023-05-10T22:24:14.272Z,0.00
2023-05-10T22:26:14.567Z,0.00
2023-05-10T22:28:14.865Z,0.00
2023-05-10T22:30:15.261Z,0.00
2023-05-10T22:32:15.611Z,0.00
2023-05-10T22:34:15.963Z,0.00
2023-05-10T22:36:16.254Z,0.00
2023-05-10T22:38:16.537Z,0.00
2023-05-10T22:40:16.977Z,0.00
2023-05-10T22:42:17.424Z,0.00
2023-05-10T22:44:18.520Z,0.00
2023-05-10T22:46:18.801Z,0.00
2023-05-10T22:48:19.174Z,0.00
2023-05-10T22:50:19.750Z,0.00
2023-05-10T22:52:20.171Z,0.00
2023-05-10T22:54:20.459Z,0.00
2023-05-10T22:56:20.761Z,0.00
2023-05-10T22:58:21.124Z,0.00
2023-05-10T23:00:21.438Z,0.00
2023-05-10T23:02:21.811Z,0.00
2023-05-10T23:04:22.133Z,0.00
2023-05-10T23:06:22.461Z,0.00
2023-05-10T23:08:22.785Z,0.00
2023-05-10T23:10:23.251Z,0.00
2023-05-10T23:12:23.644Z,0.00
2023-05-10T23:14:24.046Z,0.00
2023-05-10T23:16:24.327Z,0.00
2023-05-10T23:18:24.715Z,0.00
2023-05-10T23:20:29.855Z,0.00
2023-05-10T23:22:30.232Z,0.00
2023-05-10T23:24:30.534Z,0.00
2023-05-10T23:26:30.894Z,0.00
2023-05-10T23:28:31.147Z,0.00
2023-05-10T23:30:31.491Z,0.00
2023-05-10T23:32:31.798Z,0.00
2023-05-10T23:34:32.057Z,0.00
2023-05-10T23:36:32.424Z,0.00
2023-05-10T23:38:32.689Z,0.00
2023-05-10T23:40:33.007Z,0.00
2023-05-10T23:42:33.307Z,0.00
2023-05-10T23:44:33.639Z,0.00
2023-05-10T23:46:33.970Z,0.00
2023-05-10T23:48:34.220Z,0.00
2023-05-10T23:50:34.490Z,0.00
2023-05-10T23:52:35.074Z,0.00
2023-05-10T23:54:35.367Z,0.00
2023-05-10T23:56:35.699Z,0.00
2023-05-10T23:58:35.974Z,0.00
